Flight Track Log - Related Links

Times and Time Zones

All times are in EDT time to prevent confusion due to time zone crossing. See the AWE648 flight status page for this flight to view local times or setup timezone preferences in your user account.


Time Position Orientation Groundspeed Altitude Reporting Facility
EDT Latitude Longitude Course Direction KTS MPH feet Rate Location/Type
Tue 01:34:18 AM 37.6667 -122.3667 90° East 205 236 2,100  Level Northern Cal TRACON
Tue 01:35:12 AM 37.7333 -122.3833 349° North 249 287 3,700 2,200 Climbing Northern Cal TRACON
Tue 01:36:18 AM 37.8000 -122.3833 360° North 272 313 6,500 2,368 Climbing Northern Cal TRACON
Tue 01:37:06 AM 37.8667 -122.3667 11° North 278 320 8,200 2,053 Climbing Northern Cal TRACON
Tue 01:38:12 AM 37.8833 -122.2500 80° East 318 366 10,400 1,219 Climbing Northern Cal TRACON
Tue 01:39:00 AM 37.9833 -121.8287 90° East  Level FlightAware Approximate
Tue 01:39:14 AM 37.9056 -122.1353 76° East 341 392 10,800  Level Oakland Center
Tue 01:40:15 AM 37.9264 -121.9992 79° East 391 450 13,000 2,066 Climbing Oakland Center
Tue 01:41:16 AM 37.9461 -121.8636 80° East 392 451 15,000 1,736 Climbing Oakland Center
Tue 01:42:16 AM 37.9672 -121.7242 79° East 402 463 16,500 1,686 Climbing Oakland Center
Tue 01:43:17 AM 37.9897 -121.5803 79° East 413 475 18,400 1,884 Climbing Oakland Center
Tue 01:44:17 AM 38.0142 -121.4133 79° East 418 481 20,300 1,686 Climbing Oakland Center
Tue 01:45:18 AM 38.0356 -121.2678 79° East 422 486 21,800 1,377 Climbing Oakland Center
Tue 01:46:19 AM 38.0572 -121.1181 80° East 432 497 23,100 1,240 Climbing Oakland Center
Tue 01:47:19 AM 38.0797 -120.9658 79° East 441 507 24,300 1,140 Climbing Oakland Center
Tue 01:48:20 AM 38.1006 -120.8097 80° East 450 518 25,400 1,091 Climbing Oakland Center
Tue 01:49:20 AM 38.1219 -120.6533 80° East 452 520 26,500 1,041 Climbing Oakland Center
Tue 01:50:21 AM 38.1431 -120.4928 80° East 460 529 27,500 893 Climbing Oakland Center
Tue 01:51:21 AM 38.1650 -120.3306 80° East 467 537 28,300 843 Climbing Oakland Center
Tue 01:52:22 AM 38.1856 -120.1658 81° East 472 543 29,200 843 Climbing Oakland Center
Tue 01:53:22 AM 38.2072 -119.9994 81° East 477 549 30,000 694 Climbing Oakland Center
Tue 01:54:23 AM 38.2292 -119.8314 81° East 482 555 30,600 492 Climbing Oakland Center
Tue 01:55:24 AM 38.2511 -119.6628 81° East 483 556 31,000 198 Climbing Oakland Center
Tue 01:56:24 AM 38.2711 -119.4933 81° East 485 558 31,000  Level Oakland Center
Tue 01:57:25 AM 38.2944 -119.3050 81° East 479 551 31,000  Level Oakland Center
Tue 01:58:25 AM 38.3144 -119.1375 81° East 480 552 31,000  Level Oakland Center
Tue 01:59:26 AM 38.3344 -118.9717 81° East 477 549 31,000  Level Oakland Center
Tue 02:00:26 AM 38.3542 -118.8047 81° East 478 550 31,000  Level Oakland Center
Tue 02:01:27 AM 38.3731 -118.6347 82° East 485 558 31,000  Level Oakland Center
Tue 02:02:27 AM 38.3922 -118.4675 82° East 481 554 31,000  Level Oakland Center
Tue 02:03:28 AM 38.4011 -118.2981 86° East 483 556 31,000  Level Oakland Center
Tue 02:04:28 AM 38.4039 -118.1242 89° East 490 564 31,000  Level Oakland Center
Tue 02:06:00 AM 38.3972 -117.8718 92° East  Level FlightAware Approximate
Tue 02:06:57 AM 38.4081 -117.7094 92° East 479 551 31,000  Level Salt Lake Center
Tue 02:07:30 AM 38.4092 -117.6075 89° East 480 552 31,000  Level Oakland Center
Tue 02:08:30 AM 38.4100 -117.4369 90° East 478 550 31,000 -67 Level Oakland Center
Tue 02:08:59 AM 38.4103 -117.3681 90° East 476 548 30,900  Descending Salt Lake Center
Tue 02:09:59 AM 38.4114 -117.1992 89° East 472 543 31,000 65 Climbing Salt Lake Center
Tue 02:10:31 AM 38.4117 -117.0972 90° East 473 544 31,000  Level Oakland Center
Tue 02:11:31 AM 38.4119 -116.9267 90° East 475 547 31,000 50 Level Oakland Center
Tue 02:12:32 AM 38.4125 -116.7567 90° East 476 548 31,100  Climbing Oakland Center
Tue 02:13:32 AM 38.4122 -116.5850 90° East 481 554 31,000 -67 Descending Oakland Center
Tue 02:14:01 AM 38.4128 -116.5144 89° East 487 560 31,000  Level Salt Lake Center
Tue 02:15:02 AM 38.4128 -116.3436 90° East 482 555 31,000  Level Salt Lake Center
Tue 02:15:33 AM 38.4122 -116.2394 90° East 485 558 31,000 65 Level Oakland Center
Tue 02:16:34 AM 38.4114 -116.0644 90° East 493 567 31,100  Climbing Oakland Center
Tue 02:17:03 AM 38.4119 -115.9953 89° East 491 565 31,000 -67 Descending Salt Lake Center
Tue 02:18:03 AM 38.4114 -115.7908 90° East 480 552 31,000  Level Salt Lake Center
Tue 02:19:04 AM 38.4089 -115.6217 91° East 477 549 31,000  Level Salt Lake Center
Tue 02:20:04 AM 38.4078 -115.4531 90° East 478 550 31,000  Level Salt Lake Center
Tue 02:21:05 AM 38.4067 -115.2786 90° East 481 554 31,000  Level Salt Lake Center
Tue 02:22:05 AM 38.4050 -115.1081 91° East 483 556 31,000  Level Salt Lake Center
Tue 02:23:06 AM 38.4028 -114.9392 91° East 478 550 31,000  Level Salt Lake Center
Tue 02:24:06 AM 38.4006 -114.7700 91° East 478 550 31,000  Level Salt Lake Center
Tue 02:25:07 AM 38.3972 -114.6003 91° East 480 552 31,000  Level Salt Lake Center
Tue 02:26:07 AM 38.3939 -114.4294 91° East 482 555 31,000  Level Salt Lake Center
Tue 02:27:08 AM 38.3914 -114.2600 91° East 480 552 31,000  Level Salt Lake Center
Tue 02:28:08 AM 38.3892 -114.0897 91° East 480 552 31,000  Level Salt Lake Center
Tue 02:29:09 AM 38.3850 -113.9200 92° East 479 551 31,000  Level Salt Lake Center
Tue 02:30:09 AM 38.3803 -113.7508 92° East 479 551 31,000  Level Salt Lake Center
Tue 02:31:09 AM 38.3767 -113.5803 91° East 481 554 31,000 -50 Level Salt Lake Center
Tue 02:32:10 AM 38.3714 -113.4103 92° East 479 551 30,900  Descending Salt Lake Center
Tue 02:33:10 AM 38.3678 -113.2389 91° East 482 555 31,000 99 Climbing Salt Lake Center
Tue 02:34:11 AM 38.3633 -113.0672 92° East 485 558 31,100 50 Climbing Salt Lake Center
Tue 02:35:11 AM 38.3819 -112.8975 82° East 482 555 31,100 -50 Level Salt Lake Center
Tue 02:36:12 AM 38.4119 -112.7336 77° East 478 550 31,000 -50 Descending Salt Lake Center
Tue 02:37:12 AM 38.4419 -112.5700 77° East 474 545 31,000  Level Salt Lake Center
Tue 02:38:13 AM 38.4717 -112.4075 77° East 470 541 31,000  Level Salt Lake Center
Tue 02:39:13 AM 38.5014 -112.2425 77° East 475 547 31,000  Level Salt Lake Center
Tue 02:40:13 AM 38.5306 -112.0797 77° East 471 542 31,000  Level Salt Lake Center
Tue 02:41:14 AM 38.5600 -111.9172 77° East 470 541 31,000  Level Salt Lake Center
Tue 02:42:14 AM 38.5878 -111.7514 78° East 475 547 31,000  Level Salt Lake Center
Tue 02:43:15 AM 38.6167 -111.5883 77° East 472 543 31,000  Level Salt Lake Center
Tue 02:44:15 AM 38.6447 -111.4242 78° East 472 543 31,000  Level Salt Lake Center
Tue 02:45:15 AM 38.6717 -111.2600 78° East 472 543 31,000  Level Salt Lake Center
Tue 02:46:16 AM 38.7003 -111.0958 77° East 473 544 31,000  Level Salt Lake Center
Tue 02:47:16 AM 38.7303 -110.9156 78° East 478 550 31,000  Level Salt Lake Center
Tue 02:48:17 AM 38.7567 -110.7553 78° East 482 555 31,000 50 Level Salt Lake Center
Tue 02:49:17 AM 38.7825 -110.5936 78° East 484 557 31,100  Climbing Salt Lake Center
Tue 02:50:18 AM 38.8139 -110.4058 78° East 484 557 31,000 -61 Descending Salt Lake Center
Tue 02:50:55 AM 38.8275 -110.2953 81° East 486 559 31,000 122 Level Denver Center
Tue 02:51:56 AM 38.8536 -110.1333 78° East 485 558 31,200 347 Climbing Denver Center
Tue 02:52:56 AM 38.8806 -109.9689 78° East 489 563 31,700 723 Climbing Denver Center
Tue 02:53:19 AM 38.8947 -109.8872 77° East 496 571 32,200 1,000 Climbing Salt Lake Center
Tue 02:53:56 AM 38.9114 -109.7736 79° East 499 574 32,700 490 Climbing Denver Center
Tue 02:54:57 AM 38.9358 -109.6092 79° East 493 567 33,000 149 Climbing Denver Center
Tue 02:55:57 AM 38.9603 -109.4417 79° East 495 570 33,000  Level Denver Center
Tue 02:56:57 AM 38.9872 -109.2756 78° East 501 577 33,000  Level Denver Center
Tue 02:57:58 AM 39.0156 -109.0817 79° East 496 571 33,000  Level Denver Center
Tue 02:58:58 AM 39.0397 -108.9150 79° East 498 573 33,000  Level Denver Center
Tue 02:59:59 AM 39.0675 -108.7500 78° East 497 572 33,000  Level Denver Center
Tue 03:00:59 AM 39.1078 -108.5606 75° East 495 570 33,000  Level Denver Center
Tue 03:01:59 AM 39.1414 -108.3975 75° East 496 571 33,000  Level Denver Center
Tue 03:03:00 AM 39.1742 -108.2353 75° East 492 566 33,000  Level Denver Center
Tue 03:04:00 AM 39.2133 -108.0467 75° East 492 566 33,000  Level Denver Center
Tue 03:05:01 AM 39.2464 -107.8831 75° East 494 568 33,000  Level Denver Center
Tue 03:06:01 AM 39.2786 -107.7192 76° East 493 567 33,000  Level Denver Center
Tue 03:07:01 AM 39.3164 -107.5283 76° East 494 568 33,000  Level Denver Center
Tue 03:08:02 AM 39.3481 -107.3636 76° East 495 570 33,000  Level Denver Center
Tue 03:09:02 AM 39.3708 -107.1939 80° East 500 575 33,000  Level Denver Center
Tue 03:10:15 AM 39.4025 -106.9686 80° East 498 573 33,000  Level Denver Center
Tue 03:11:15 AM 39.4244 -106.7992 80° East 499 574 33,000  Level Denver Center
Tue 03:12:15 AM 39.4492 -106.6306 79° East 499 574 33,000  Level Denver Center
Tue 03:13:16 AM 39.4731 -106.4567 80° East 501 577 33,000 -50 Level Denver Center
Tue 03:14:16 AM 39.4972 -106.2806 80° East 498 573 32,900  Descending Denver Center
Tue 03:15:17 AM 39.5233 -106.0786 80° East 496 571 33,000 50 Climbing Denver Center
Tue 03:16:17 AM 39.5458 -105.9014 81° East 495 570 33,000 50 Level Denver Center
Tue 03:17:17 AM 39.5703 -105.7236 80° East 483 556 33,100  Climbing Denver Center
Tue 03:18:18 AM 39.5931 -105.5478 80° East 486 559 33,000 -50 Descending Denver Center
Tue 03:19:18 AM 39.6142 -105.3742 81° East 483 556 33,000  Level Denver Center
Tue 03:20:19 AM 39.6356 -105.1994 81° East 479 551 33,000  Level Denver Center
Tue 03:21:19 AM 39.6569 -105.0253 81° East 484 557 33,000  Level Denver Center
Tue 03:22:19 AM 39.6736 -104.8794 82° East 483 556 33,000  Level Denver Center
Tue 03:23:20 AM 39.6967 -104.7006 80° East 501 577 33,000  Level Denver Center
Tue 03:24:20 AM 39.7186 -104.5194 81° East 492 566 33,000  Level Denver Center
Tue 03:25:21 AM 39.7386 -104.3425 82° East 475 547 33,000  Level Denver Center
Tue 03:26:21 AM 39.7578 -104.1658 82° East 498 573 33,000 -50 Level Denver Center
Tue 03:27:22 AM 39.7778 -103.9925 81° East 476 548 32,900  Descending Denver Center
Tue 03:28:22 AM 39.7978 -103.8122 82° East 497 572 33,000 50 Climbing Denver Center
Tue 03:29:22 AM 39.8169 -103.6392 82° East 476 548 33,000  Level Denver Center
Tue 03:30:23 AM 39.8358 -103.4656 82° East 481 554 33,000  Level Denver Center
Tue 03:31:23 AM 39.8542 -103.2933 82° East 477 549 33,000  Level Denver Center
Tue 03:32:24 AM 39.8731 -103.1200 82° East 479 551 33,000  Level Denver Center
Tue 03:33:24 AM 39.8911 -102.9464 82° East 479 551 33,000  Level Denver Center
Tue 03:34:24 AM 39.9056 -102.8025 82° East 478 550 33,000  Level Denver Center
Tue 03:35:25 AM 39.9269 -102.5928 82° East 479 551 33,000  Level Denver Center
Tue 03:36:25 AM 39.9447 -102.4292 82° East 479 551 33,000  Level Denver Center
Tue 03:37:26 AM 39.9597 -102.2644 83° East 478 550 33,000  Level Denver Center
Tue 03:38:26 AM 39.9781 -102.0722 83° East 480 552 33,000  Level Denver Center
Tue 03:39:27 AM 39.9939 -101.9061 83° East 482 555 33,000  Level Denver Center
Tue 03:40:27 AM 40.0100 -101.7383 83° East 486 559 33,000  Level Denver Center
Tue 03:41:27 AM 40.0253 -101.5722 83° East 484 557 33,000 50 Level Denver Center
Tue 03:42:28 AM 40.0428 -101.3753 83° East 490 564 33,100  Climbing Denver Center
Tue 03:43:28 AM 40.0567 -101.2081 84° East 488 562 33,000 -50 Descending Denver Center
Tue 03:44:29 AM 40.0717 -101.0428 83° East 483 556 33,000  Level Denver Center
Tue 03:45:29 AM 40.0878 -100.8506 84° East 480 552 33,000  Level Denver Center
Tue 03:46:29 AM 40.1019 -100.6856 84° East 481 554 33,000  Level Denver Center
Tue 03:47:30 AM 40.1158 -100.5225 84° East 477 549 33,000  Level Denver Center
Tue 03:48:30 AM 40.1311 -100.3303 84° East 478 550 33,000  Level Denver Center
Tue 03:49:31 AM 40.1442 -100.1636 84° East 481 554 33,000  Level Denver Center
Tue 03:50:31 AM 40.1572 -99.9975 84° East 482 555 33,000  Level Denver Center
Tue 03:51:31 AM 40.1725 -99.7967 84° East 487 560 33,000  Level Denver Center
Tue 03:52:32 AM 40.1853 -99.6206 85° East 489 563 33,000  Level Denver Center
Tue 03:53:32 AM 40.1986 -99.4450 84° East 487 560 33,000  Level Denver Center
Tue 03:54:33 AM 40.2108 -99.2725 85° East 481 554 33,000  Level Denver Center
Tue 03:55:33 AM 40.2236 -99.1000 84° East 479 551 33,000  Level Denver Center
Tue 03:56:34 AM 40.2344 -98.9275 85° East 477 549 33,000  Level Denver Center
Tue 03:57:34 AM 40.2461 -98.7544 85° East 479 551 33,000  Level Denver Center
Tue 03:58:31 AM 40.2575 -98.5831 85° East 479 551 33,000  Level Minneapolis Center
Tue 03:59:31 AM 40.2681 -98.4108 85° East 478 550 33,000  Level Minneapolis Center
Tue 04:00:34 AM 40.2797 -98.2381 85° East 478 550 33,000  Level Minneapolis Center
Tue 04:01:34 AM 40.2903 -98.0667 85° East 476 548 33,000  Level Minneapolis Center
Tue 04:02:35 AM 40.3000 -97.8967 86° East 472 543 33,000  Level Minneapolis Center
Tue 04:03:35 AM 40.3100 -97.7242 86° East 474 545 33,000  Level Minneapolis Center
Tue 04:04:35 AM 40.3197 -97.5519 86° East 476 548 33,000  Level Minneapolis Center
Tue 04:05:36 AM 40.3297 -97.3797 86° East 476 548 33,000  Level Minneapolis Center
Tue 04:06:36 AM 40.3381 -97.2014 86° East 472 543 33,000  Level Minneapolis Center
Tue 04:07:36 AM 40.3472 -97.0322 86° East 469 540 33,000  Level Minneapolis Center
Tue 04:08:37 AM 40.3564 -96.8614 86° East 471 542 33,000  Level Minneapolis Center
Tue 04:09:37 AM 40.3650 -96.6875 86° East 477 549 33,000  Level Minneapolis Center
Tue 04:10:37 AM 40.3733 -96.5161 86° East 475 547 33,000  Level Minneapolis Center
Tue 04:11:38 AM 40.3814 -96.3450 86° East 473 544 33,000  Level Minneapolis Center
Tue 04:12:38 AM 40.3892 -96.1736 87° East 473 544 33,000  Level Minneapolis Center
Tue 04:13:39 AM 40.3967 -96.0042 87° East 470 541 33,000  Level Minneapolis Center
Tue 04:14:39 AM 40.4028 -95.8322 87° East 472 543 33,000  Level Minneapolis Center
Tue 04:15:39 AM 40.4100 -95.6614 87° East 472 543 33,000  Level Minneapolis Center
Tue 04:16:40 AM 40.4181 -95.4919 86° East 470 541 33,000  Level Minneapolis Center
Tue 04:17:40 AM 40.4242 -95.3214 87° East 470 541 33,000  Level Minneapolis Center
Tue 04:18:40 AM 40.4303 -95.1511 87° East 469 540 33,000  Level Minneapolis Center
Tue 04:19:41 AM 40.4361 -94.9833 87° East 465 535 33,000  Level Minneapolis Center
Tue 04:20:41 AM 40.4417 -94.8144 87° East 464 534 33,000  Level Minneapolis Center
Tue 04:21:41 AM 40.4475 -94.6456 87° East 464 534 33,000  Level Minneapolis Center
Tue 04:22:42 AM 40.4522 -94.4694 88° East 466 536 33,000  Level Minneapolis Center
Tue 04:23:42 AM 40.4564 -94.3011 88° East 465 535 33,000  Level Minneapolis Center
Tue 04:24:42 AM 40.4614 -94.1328 88° East 465 535 33,000  Level Minneapolis Center
Tue 04:25:43 AM 40.4650 -93.9642 88° East 466 536 33,000  Level Minneapolis Center
Tue 04:26:43 AM 40.4694 -93.7939 88° East 468 539 33,000  Level Minneapolis Center
Tue 04:27:44 AM 40.4711 -93.6253 89° East 467 537 33,000  Level Minneapolis Center
Tue 04:28:44 AM 40.4772 -93.4578 87° East 465 535 33,000  Level Minneapolis Center
Tue 04:29:45 AM 40.4797 -93.2919 89° East 461 531 33,000 -72 Level Minneapolis Center
Tue 04:30:07 AM 40.4800 -93.2253 90° East 459 528 32,900  Descending Kansas City Center
Tue 04:31:08 AM 40.4839 -93.0575 88° East 461 531 33,000 50 Climbing Kansas City Center
Tue 04:32:08 AM 40.4864 -92.8575 89° East 464 534 33,000  Level Kansas City Center
Tue 04:33:09 AM 40.4897 -92.6964 88° East 462 532 33,000  Level Kansas City Center
Tue 04:34:09 AM 40.4925 -92.5344 89° East 465 535 33,000  Level Kansas City Center
Tue 04:35:10 AM 40.4947 -92.3656 89° East 463 533 33,000  Level Kansas City Center
Tue 04:36:10 AM 40.4958 -92.2075 89° East 463 533 33,000  Level Kansas City Center
Tue 04:37:11 AM 40.4969 -92.0036 90° East 466 536 33,000 50 Level Kansas City Center
Tue 04:38:11 AM 40.4981 -91.8344 89° East 466 536 33,100  Climbing Kansas City Center
Tue 04:39:12 AM 40.4983 -91.6664 90° East 465 535 33,000 -50 Descending Kansas City Center
Tue 04:40:10 AM 40.5006 -91.5003 89° East 459 528 33,000  Level Chicago Center
Tue 04:41:11 AM 40.5022 -91.3347 89° East 456 525 33,000  Level Chicago Center
Tue 04:42:11 AM 40.5006 -91.1883 91° East 455 524 33,000  Level Chicago Center
Tue 04:43:11 AM 40.5008 -91.0233 90° East 453 521 33,000  Level Chicago Center
Tue 04:44:11 AM 40.5014 -90.8581 90° East 453 521 33,000  Level Chicago Center
Tue 04:45:12 AM 40.5003 -90.6925 90° East 454 522 33,000 99 Level Chicago Center
Tue 04:46:12 AM 40.4997 -90.5286 90° East 451 519 33,200 400 Climbing Chicago Center
Tue 04:47:12 AM 40.4992 -90.3636 90° East 452 520 33,800 694 Climbing Chicago Center
Tue 04:48:13 AM 40.4969 -90.1828 91° East 458 527 34,600 595 Climbing Chicago Center
Tue 04:49:13 AM 40.4956 -90.0167 91° East 459 528 35,000 200 Climbing Chicago Center
Tue 04:50:13 AM 40.4931 -89.8525 91° East 454 522 35,000  Level Chicago Center
Tue 04:51:13 AM 40.4914 -89.6878 91° East 455 524 35,000  Level Chicago Center
Tue 04:52:14 AM 40.4892 -89.5081 91° East 456 525 35,000  Level Chicago Center
Tue 04:53:14 AM 40.4878 -89.3447 91° East 452 520 35,000  Level Chicago Center
Tue 04:54:14 AM 40.4853 -89.1792 91° East 455 524 35,000  Level Chicago Center
Tue 04:55:15 AM 40.4819 -89.0128 91° East 456 525 35,000  Level Chicago Center
Tue 04:56:15 AM 40.4794 -88.8453 91° East 460 529 35,000  Level Chicago Center
Tue 04:57:15 AM 40.4767 -88.6967 91° East 460 529 35,000  Level Chicago Center
Tue 04:58:16 AM 40.4731 -88.4961 91° East 462 532 35,000 -50 Level Chicago Center
Tue 04:59:16 AM 40.4683 -88.3286 92° East 465 535 34,900  Descending Chicago Center
Tue 05:00:19 AM 40.4644 -88.1583 92° East 472 543 35,000 48 Climbing Chicago Center
Tue 05:01:20 AM 40.4606 -87.9853 92° East 477 549 35,000 50 Level Chicago Center
Tue 05:02:20 AM 40.4558 -87.8136 92° East 476 548 35,100  Climbing Chicago Center
Tue 05:03:20 AM 40.4522 -87.6414 92° East 477 549 35,000 -50 Descending Chicago Center
Tue 05:04:21 AM 40.4450 -87.4497 93° East 471 542 35,000  Level Chicago Center
Tue 05:05:21 AM 40.4400 -87.3042 93° East 472 543 35,000  Level Chicago Center
Tue 05:06:21 AM 40.4342 -87.1269 92° East 482 555 35,000  Level Chicago Center
Tue 05:07:22 AM 40.4283 -86.9492 92° East 482 555 35,000  Level Chicago Center
Tue 05:08:22 AM 40.4219 -86.7708 93° East 486 559 35,000  Level Chicago Center
Tue 05:09:23 AM 40.4153 -86.5944 93° East 483 556 35,000  Level Chicago Center
Tue 05:10:23 AM 40.4083 -86.4175 93° East 481 554 35,000  Level Chicago Center
Tue 05:11:23 AM 40.4008 -86.2383 93° East 485 558 35,000  Level Chicago Center
Tue 05:12:24 AM 40.3936 -86.0594 93° East 487 560 35,000  Level Chicago Center
Tue 05:13:24 AM 40.3864 -85.8789 93° East 492 566 35,000  Level Chicago Center
Tue 05:14:25 AM 40.3775 -85.7000 94° East 490 564 35,000  Level Chicago Center
Tue 05:15:25 AM 40.3675 -85.5217 94° East 487 560 35,000  Level Chicago Center
Tue 05:16:26 AM 40.3589 -85.3422 94° East 491 565 35,000  Level Chicago Center
Tue 05:17:26 AM 40.3508 -85.1667 93° East 484 557 35,000  Level Chicago Center
Tue 05:18:27 AM 40.3419 -84.9897 94° East 484 557 35,000  Level Chicago Center
Tue 05:19:27 AM 40.3325 -84.8144 94° East 481 554 35,000  Level Chicago Center
Tue 05:20:27 AM 40.3225 -84.6375 94° East 483 556 35,000  Level Chicago Center
Tue 05:21:28 AM 40.3128 -84.4622 94° East 479 551 35,000  Level Chicago Center
Tue 05:22:28 AM 40.3025 -84.3042 95° East 480 552 35,000  Level Chicago Center
Tue 05:23:37 AM 40.2911 -84.0850 94° East 481 554 35,000  Level Indianapolis Center
Tue 05:24:38 AM 40.2914 -83.9056 90° East 486 559 35,000  Level Indianapolis Center
Tue 05:25:39 AM 40.2967 -83.7272 88° East 483 556 35,000  Level Indianapolis Center
Tue 05:26:39 AM 40.3008 -83.5472 88° East 486 559 35,000  Level Indianapolis Center
Tue 05:27:40 AM 40.3053 -83.3683 88° East 483 556 35,000 -49 Level Indianapolis Center
Tue 05:28:41 AM 40.3086 -83.1900 89° East 483 556 34,900 -49 Descending Indianapolis Center
Tue 05:29:42 AM 40.3125 -83.0122 88° East 482 555 34,900  Level Indianapolis Center
Tue 05:30:42 AM 40.3156 -82.8353 89° East 482 555 34,900 50 Level Indianapolis Center
Tue 05:31:43 AM 40.3189 -82.6592 89° East 482 555 35,000 49 Climbing Indianapolis Center
Tue 05:32:44 AM 40.3211 -82.4808 89° East 486 559 35,000  Level Indianapolis Center
Tue 05:33:44 AM 40.3236 -82.3033 89° East 486 559 35,000  Level Indianapolis Center
Tue 05:34:45 AM 40.3261 -82.1253 89° East 487 560 35,000  Level Indianapolis Center
Tue 05:35:45 AM 40.3264 -81.9478 90° East 485 558 35,000  Level Indianapolis Center
Tue 05:36:46 AM 40.3228 -81.7686 91° East 488 562 35,000  Level Indianapolis Center
Tue 05:37:47 AM 40.3208 -81.5892 91° East 488 562 35,000  Level Indianapolis Center
Tue 05:38:47 AM 40.3169 -81.4111 92° East 488 562 35,000  Level Indianapolis Center
Tue 05:39:48 AM 40.3147 -81.2325 91° East 488 562 35,000  Level Indianapolis Center
Tue 05:40:48 AM 40.3106 -81.0542 92° East 487 560 35,000  Level Indianapolis Center
Tue 05:41:49 AM 40.3078 -80.8772 91° East 486 559 35,000  Level Indianapolis Center
Tue 05:42:49 AM 40.3025 -80.6978 92° East 490 564 35,000  Level Indianapolis Center
Tue 05:43:57 AM 40.3006 -80.4850 91° East 478 550 35,000  Level Cleveland Center
Tue 05:44:57 AM 40.2942 -80.3108 93° East 478 550 35,000  Level Cleveland Center
Tue 05:45:57 AM 40.2872 -80.1339 93° East 478 550 35,000  Level Cleveland Center
Tue 05:46:57 AM 40.2844 -79.9544 91° East 478 550 35,000  Level Cleveland Center
Tue 05:47:57 AM 40.2814 -79.7967 91° East 478 550 35,000  Level Cleveland Center
Tue 05:48:57 AM 40.2758 -79.6225 92° East 478 550 35,000  Level Cleveland Center
Tue 05:49:57 AM 40.2678 -79.4458 93° East 478 550 35,000  Level Cleveland Center
Tue 05:50:57 AM 40.2594 -79.2528 93° East 478 550 35,000  Level Cleveland Center
Tue 05:51:57 AM 40.2531 -79.0761 93° East 478 550 35,000  Level Cleveland Center
Tue 05:52:57 AM 40.2467 -78.9019 93° East 478 550 35,000  Level Cleveland Center
Tue 05:53:57 AM 40.2397 -78.7228 93° East 478 550 35,000  Level Cleveland Center
Tue 05:54:57 AM 40.2325 -78.5489 93° East 478 550 35,000  Level Cleveland Center
Tue 05:56:40 AM 40.2183 -78.2525 93° East 491 565 35,000 -220 Level New York Center
Tue 05:57:41 AM 40.2122 -78.0806 93° East 480 552 34,400 -807 Descending New York Center
Tue 05:58:39 AM 40.2042 -77.9083 93° East 480 552 33,400 -1,008 Descending New York Center
Tue 05:59:40 AM 40.1956 -77.7361 94° East 480 552 32,400 -934 Descending New York Center
Tue 06:00:41 AM 40.1869 -77.5642 94° East 480 552 31,500 -1,721 Descending New York Center
Tue 06:01:42 AM 40.1800 -77.3894 93° East 480 552 28,900 -2,400 Descending New York Center
Tue 06:02:41 AM 40.1678 -77.2333 96° East 480 552 26,700 -2,136 Descending New York Center
Tue 06:03:40 AM 40.1603 -77.0669 93° East 480 552 24,700 -2,067 Descending New York Center
Tue 06:04:40 AM 40.1497 -76.9111 95° East 458 527 22,600 -2,250 Descending New York Center
Tue 06:05:40 AM 40.1417 -76.7394 93° East 441 507 20,200 -2,150 Descending New York Center
Tue 06:06:40 AM 40.1358 -76.6058 93° East 421 484 18,300 -2,000 Descending New York Center
Tue 06:07:40 AM 40.1250 -76.4447 95° East 409 471 16,200 -2,033 Descending New York Center
Tue 06:08:41 AM 40.1169 -76.3056 94° East 404 465 14,200 -1,950 Descending New York Center
Tue 06:09:40 AM 40.1103 -76.1828 94° East 380 437 12,300 -1,765 Descending New York Center
Tue 06:10:40 AM 40.1014 -76.0547 95° East 364 419 10,700 -1,150 Descending New York Center
Tue 06:11:40 AM 40.0944 -75.9292 94° East 323 372 10,000 -1,008 Descending New York Center
Tue 06:12:39 AM 40.0794 -75.8414 103° East 288 331 8,700 -1,388 Descending New York Center
Tue 06:13:41 AM 40.0017 -75.8086 162° South 248 285 7,200 -1,033 Descending New York Center
Tue 06:14:41 AM 39.9400 -75.7906 167° South 248 285 6,600 -605 Descending New York Center
Tue 06:15:40 AM 39.8781 -75.7781 171° South 232 267 6,000 -303 Descending New York Center
Tue 06:16:40 AM 39.8344 -75.7747 177° South 190 219 6,000 -50 Level New York Center
Tue 06:17:41 AM 39.8028 -75.7319 134° Southeast 139 160 5,900 -541 Descending New York Center
Tue 06:18:42 AM 39.7903 -75.6825 108° East 149 171 4,900 -958 Descending New York Center
Tue 06:19:40 AM 39.7908 -75.6203 89° East 149 171 4,000 -740 Descending New York Center
Tue 06:19:55 AM 39.8000 -75.6000 60° Northeast 167 192 4,000  Level Philadelphia TRACON
Tue 06:20:55 AM 39.8000 -75.5500 90° East 162 186 4,000 -250 Level Philadelphia TRACON
Tue 06:21:55 AM 39.8167 -75.4833 72° East 162 186 3,500 -700 Descending Philadelphia TRACON
Tue 06:22:55 AM 39.8333 -75.4333 67° East 160 184 2,600 -850 Descending Philadelphia TRACON
Tue 06:23:55 AM 39.8333 -75.3833 90° East 149 171 1,800 -800 Descending Philadelphia TRACON

Login

Don't have an account? Register now (free) for customized features, flight alerts, and more!